sensor_id;sensor_type;location;lat;lon;timestamp;P1;durP1;ratioP1;P2;durP2;ratioP2
71570;SDS011;59407;42.682;23.322;2023-06-14T00:00:58;3.60;;;2.03;;
71570;SDS011;59407;42.682;23.322;2023-06-14T00:03:27;5.57;;;2.45;;
71570;SDS011;59407;42.682;23.322;2023-06-14T00:05:53;4.85;;;2.13;;
71570;SDS011;59407;42.682;23.322;2023-06-14T00:08:19;4.70;;;2.33;;
71570;SDS011;59407;42.682;23.322;2023-06-14T00:10:46;4.45;;;2.20;;
71570;SDS011;59407;42.682;23.322;2023-06-14T00:13:11;4.60;;;2.00;;
71570;SDS011;59407;42.682;23.322;2023-06-14T00:15:37;6.05;;;2.25;;
71570;SDS011;59407;42.682;23.322;2023-06-14T00:18:04;3.57;;;1.87;;
71570;SDS011;59407;42.682;23.322;2023-06-14T00:20:30;4.65;;;1.90;;
71570;SDS011;59407;42.682;23.322;2023-06-14T00:22:58;4.68;;;1.90;;
71570;SDS011;59407;42.682;23.322;2023-06-14T00:25:24;5.20;;;2.20;;
71570;SDS011;59407;42.682;23.322;2023-06-14T00:27:52;4.50;;;1.70;;
71570;SDS011;59407;42.682;23.322;2023-06-14T00:30:23;5.17;;;2.33;;
71570;SDS011;59407;42.682;23.322;2023-06-14T00:32:50;4.03;;;1.90;;
71570;SDS011;59407;42.682;23.322;2023-06-14T00:35:16;3.28;;;1.70;;
71570;SDS011;59407;42.682;23.322;2023-06-14T00:37:57;4.33;;;1.53;;
71570;SDS011;59407;42.682;23.322;2023-06-14T00:40:23;6.07;;;2.03;;
71570;SDS011;59407;42.682;23.322;2023-06-14T00:42:49;4.22;;;1.52;;
71570;SDS011;59407;42.682;23.322;2023-06-14T00:45:14;3.70;;;1.80;;
71570;SDS011;59407;42.682;23.322;2023-06-14T00:50:44;4.07;;;1.63;;
71570;SDS011;59407;42.682;23.322;2023-06-14T00:53:26;4.80;;;1.90;;
71570;SDS011;59407;42.682;23.322;2023-06-14T00:55:52;3.75;;;2.00;;
71570;SDS011;59407;42.682;23.322;2023-06-14T00:58:18;3.90;;;1.97;;
71570;SDS011;59407;42.682;23.322;2023-06-14T01:00:45;6.50;;;2.28;;
71570;SDS011;59407;42.682;23.322;2023-06-14T01:05:50;3.97;;;1.85;;
71570;SDS011;59407;42.682;23.322;2023-06-14T01:12:17;4.68;;;2.35;;
71570;SDS011;59407;42.682;23.322;2023-06-14T01:22:54;4.90;;;1.80;;
71570;SDS011;59407;42.682;23.322;2023-06-14T01:25:32;4.70;;;2.10;;
71570;SDS011;59407;42.682;23.322;2023-06-14T01:34:49;6.00;;;1.80;;
71570;SDS011;59407;42.682;23.322;2023-06-14T01:37:18;4.70;;;2.20;;
71570;SDS011;59407;42.682;23.322;2023-06-14T01:39:47;4.47;;;2.25;;
71570;SDS011;59407;42.682;23.322;2023-06-14T01:52:46;3.40;;;1.80;;
71570;SDS011;59407;42.682;23.322;2023-06-14T01:55:16;3.88;;;1.63;;
71570;SDS011;59407;42.682;23.322;2023-06-14T01:57:43;5.28;;;2.33;;
71570;SDS011;59407;42.682;23.322;2023-06-14T02:00:09;3.88;;;1.98;;
71570;SDS011;59407;42.682;23.322;2023-06-14T02:02:37;3.83;;;2.00;;
71570;SDS011;59407;42.682;23.322;2023-06-14T02:05:03;4.32;;;1.67;;
71570;SDS011;59407;42.682;23.322;2023-06-14T02:07:30;5.78;;;2.17;;
71570;SDS011;59407;42.682;23.322;2023-06-14T02:09:55;3.97;;;1.77;;
71570;SDS011;59407;42.682;23.322;2023-06-14T02:12:22;4.32;;;2.15;;
71570;SDS011;59407;42.682;23.322;2023-06-14T02:14:47;4.10;;;1.80;;
71570;SDS011;59407;42.682;23.322;2023-06-14T02:20:05;4.27;;;2.37;;
71570;SDS011;59407;42.682;23.322;2023-06-14T02:22:30;4.85;;;2.25;;
71570;SDS011;59407;42.682;23.322;2023-06-14T02:25:11;4.37;;;2.07;;
71570;SDS011;59407;42.682;23.322;2023-06-14T02:27:37;4.07;;;2.40;;
71570;SDS011;59407;42.682;23.322;2023-06-14T02:30:02;3.67;;;1.73;;
71570;SDS011;59407;42.682;23.322;2023-06-14T02:32:28;5.28;;;2.15;;
71570;SDS011;59407;42.682;23.322;2023-06-14T02:34:54;4.25;;;2.53;;
71570;SDS011;59407;42.682;23.322;2023-06-14T02:37:20;5.20;;;2.47;;
71570;SDS011;59407;42.682;23.322;2023-06-14T02:39:45;3.95;;;2.20;;
71570;SDS011;59407;42.682;23.322;2023-06-14T02:42:11;4.63;;;1.90;;
71570;SDS011;59407;42.682;23.322;2023-06-14T02:44:37;5.10;;;2.43;;
71570;SDS011;59407;42.682;23.322;2023-06-14T02:47:02;5.57;;;2.70;;
71570;SDS011;59407;42.682;23.322;2023-06-14T02:49:28;4.10;;;1.88;;
71570;SDS011;59407;42.682;23.322;2023-06-14T02:51:55;5.70;;;2.37;;
71570;SDS011;59407;42.682;23.322;2023-06-14T02:54:21;4.95;;;2.40;;
71570;SDS011;59407;42.682;23.322;2023-06-14T02:56:46;5.43;;;2.33;;
71570;SDS011;59407;42.682;23.322;2023-06-14T02:59:20;5.07;;;2.35;;
71570;SDS011;59407;42.682;23.322;2023-06-14T03:04:59;5.45;;;2.50;;
71570;SDS011;59407;42.682;23.322;2023-06-14T03:09:59;4.97;;;1.98;;
71570;SDS011;59407;42.682;23.322;2023-06-14T03:12:24;4.30;;;2.17;;
71570;SDS011;59407;42.682;23.322;2023-06-14T03:17:42;4.72;;;2.10;;
71570;SDS011;59407;42.682;23.322;2023-06-14T03:20:10;4.83;;;2.47;;
71570;SDS011;59407;42.682;23.322;2023-06-14T03:33:02;3.83;;;2.08;;
71570;SDS011;59407;42.682;23.322;2023-06-14T03:35:29;4.97;;;2.55;;
71570;SDS011;59407;42.682;23.322;2023-06-14T03:37:55;5.65;;;2.55;;
71570;SDS011;59407;42.682;23.322;2023-06-14T03:47:25;5.95;;;2.28;;
71570;SDS011;59407;42.682;23.322;2023-06-14T03:53:13;4.55;;;2.25;;
71570;SDS011;59407;42.682;23.322;2023-06-14T03:55:39;4.20;;;2.53;;
71570;SDS011;59407;42.682;23.322;2023-06-14T03:58:06;5.68;;;2.95;;
71570;SDS011;59407;42.682;23.322;2023-06-14T04:00:34;5.23;;;2.43;;
71570;SDS011;59407;42.682;23.322;2023-06-14T04:03:00;5.47;;;2.25;;
71570;SDS011;59407;42.682;23.322;2023-06-14T04:05:28;5.35;;;2.28;;
71570;SDS011;59407;42.682;23.322;2023-06-14T04:07:53;4.90;;;2.20;;
71570;SDS011;59407;42.682;23.322;2023-06-14T04:10:21;5.85;;;2.75;;
71570;SDS011;59407;42.682;23.322;2023-06-14T04:12:47;5.80;;;2.97;;
71570;SDS011;59407;42.682;23.322;2023-06-14T04:15:12;5.63;;;2.47;;
71570;SDS011;59407;42.682;23.322;2023-06-14T04:17:40;7.43;;;2.85;;
71570;SDS011;59407;42.682;23.322;2023-06-14T04:20:19;3.60;;;2.05;;
71570;SDS011;59407;42.682;23.322;2023-06-14T04:22:49;5.33;;;2.60;;
71570;SDS011;59407;42.682;23.322;2023-06-14T04:25:15;5.18;;;2.42;;
71570;SDS011;59407;42.682;23.322;2023-06-14T04:27:41;5.57;;;2.67;;
71570;SDS011;59407;42.682;23.322;2023-06-14T04:30:08;7.53;;;2.95;;
71570;SDS011;59407;42.682;23.322;2023-06-14T04:39:23;5.78;;;3.08;;
71570;SDS011;59407;42.682;23.322;2023-06-14T04:41:50;5.38;;;2.70;;
71570;SDS011;59407;42.682;23.322;2023-06-14T04:44:21;5.78;;;2.83;;
71570;SDS011;59407;42.682;23.322;2023-06-14T04:46:49;5.50;;;3.07;;
71570;SDS011;59407;42.682;23.322;2023-06-14T04:49:15;6.30;;;3.10;;
71570;SDS011;59407;42.682;23.322;2023-06-14T04:51:42;8.80;;;3.25;;
71570;SDS011;59407;42.682;23.322;2023-06-14T04:54:09;9.48;;;3.15;;
71570;SDS011;59407;42.682;23.322;2023-06-14T04:56:38;6.83;;;3.20;;
71570;SDS011;59407;42.682;23.322;2023-06-14T04:59:03;6.40;;;2.65;;
71570;SDS011;59407;42.682;23.322;2023-06-14T05:01:32;6.67;;;3.27;;
71570;SDS011;59407;42.682;23.322;2023-06-14T05:03:58;8.05;;;3.65;;
71570;SDS011;59407;42.682;23.322;2023-06-14T05:09:31;5.47;;;3.00;;
71570;SDS011;59407;42.682;23.322;2023-06-14T05:11:56;6.07;;;2.93;;
71570;SDS011;59407;42.682;23.322;2023-06-14T05:14:23;5.25;;;2.80;;
71570;SDS011;59407;42.682;23.322;2023-06-14T05:16:49;7.50;;;3.37;;
71570;SDS011;59407;42.682;23.322;2023-06-14T05:19:15;7.45;;;3.53;;
71570;SDS011;59407;42.682;23.322;2023-06-14T05:21:43;7.75;;;3.15;;
71570;SDS011;59407;42.682;23.322;2023-06-14T05:24:10;7.13;;;3.25;;
71570;SDS011;59407;42.682;23.322;2023-06-14T05:26:38;8.43;;;4.00;;
71570;SDS011;59407;42.682;23.322;2023-06-14T05:29:05;7.85;;;3.75;;
71570;SDS011;59407;42.682;23.322;2023-06-14T05:31:30;7.30;;;3.30;;
71570;SDS011;59407;42.682;23.322;2023-06-14T05:33:56;7.20;;;3.13;;
71570;SDS011;59407;42.682;23.322;2023-06-14T05:36:34;7.13;;;2.80;;
71570;SDS011;59407;42.682;23.322;2023-06-14T05:39:01;8.75;;;3.88;;
71570;SDS011;59407;42.682;23.322;2023-06-14T05:47:35;9.67;;;3.20;;
71570;SDS011;59407;42.682;23.322;2023-06-14T05:50:04;7.38;;;3.70;;
71570;SDS011;59407;42.682;23.322;2023-06-14T05:52:37;8.80;;;3.58;;
71570;SDS011;59407;42.682;23.322;2023-06-14T06:18:17;7.53;;;4.17;;
71570;SDS011;59407;42.682;23.322;2023-06-14T06:23:42;9.00;;;4.30;;
71570;SDS011;59407;42.682;23.322;2023-06-14T06:29:14;8.50;;;3.50;;
71570;SDS011;59407;42.682;23.322;2023-06-14T06:38:42;10.27;;;4.53;;
71570;SDS011;59407;42.682;23.322;2023-06-14T06:41:08;8.60;;;4.47;;
71570;SDS011;59407;42.682;23.322;2023-06-14T06:43:49;8.23;;;4.00;;
71570;SDS011;59407;42.682;23.322;2023-06-14T06:46:14;10.45;;;4.57;;
71570;SDS011;59407;42.682;23.322;2023-06-14T06:48:39;10.20;;;4.50;;
71570;SDS011;59407;42.682;23.322;2023-06-14T06:51:05;10.50;;;5.20;;
71570;SDS011;59407;42.682;23.322;2023-06-14T06:53:30;11.13;;;4.57;;
71570;SDS011;59407;42.682;23.322;2023-06-14T06:56:04;8.85;;;4.15;;
71570;SDS011;59407;42.682;23.322;2023-06-14T07:01:31;7.40;;;3.67;;
71570;SDS011;59407;42.682;23.322;2023-06-14T07:03:58;7.97;;;4.63;;
71570;SDS011;59407;42.682;23.322;2023-06-14T07:06:24;9.05;;;4.13;;
71570;SDS011;59407;42.682;23.322;2023-06-14T07:08:52;8.15;;;4.22;;
71570;SDS011;59407;42.682;23.322;2023-06-14T07:11:17;8.13;;;4.10;;
71570;SDS011;59407;42.682;23.322;2023-06-14T07:13:43;7.57;;;3.97;;
71570;SDS011;59407;42.682;23.322;2023-06-14T07:16:08;9.50;;;4.78;;
71570;SDS011;59407;42.682;23.322;2023-06-14T07:18:33;8.80;;;3.73;;
71570;SDS011;59407;42.682;23.322;2023-06-14T07:20:59;9.00;;;4.03;;
71570;SDS011;59407;42.682;23.322;2023-06-14T07:23:25;8.50;;;4.38;;
71570;SDS011;59407;42.682;23.322;2023-06-14T07:25:50;6.97;;;3.60;;
71570;SDS011;59407;42.682;23.322;2023-06-14T07:28:16;8.37;;;4.20;;
71570;SDS011;59407;42.682;23.322;2023-06-14T07:30:43;8.20;;;3.97;;
71570;SDS011;59407;42.682;23.322;2023-06-14T07:33:09;9.17;;;4.23;;
71570;SDS011;59407;42.682;23.322;2023-06-14T07:35:35;7.72;;;4.03;;
71570;SDS011;59407;42.682;23.322;2023-06-14T07:38:00;10.13;;;5.13;;
71570;SDS011;59407;42.682;23.322;2023-06-14T07:40:26;10.60;;;4.53;;
71570;SDS011;59407;42.682;23.322;2023-06-14T07:42:51;9.07;;;4.33;;
71570;SDS011;59407;42.682;23.322;2023-06-14T07:45:22;10.25;;;5.32;;
71570;SDS011;59407;42.682;23.322;2023-06-14T07:47:47;8.65;;;4.57;;
71570;SDS011;59407;42.682;23.322;2023-06-14T07:50:12;8.53;;;4.27;;
71570;SDS011;59407;42.682;23.322;2023-06-14T07:52:38;8.83;;;4.07;;
71570;SDS011;59407;42.682;23.322;2023-06-14T07:55:04;7.65;;;4.60;;
71570;SDS011;59407;42.682;23.322;2023-06-14T07:57:30;7.25;;;3.90;;
71570;SDS011;59407;42.682;23.322;2023-06-14T07:59:55;8.43;;;4.40;;
71570;SDS011;59407;42.682;23.322;2023-06-14T08:02:26;7.03;;;3.67;;
71570;SDS011;59407;42.682;23.322;2023-06-14T08:04:51;8.65;;;4.45;;
71570;SDS011;59407;42.682;23.322;2023-06-14T08:07:17;6.97;;;4.33;;
71570;SDS011;59407;42.682;23.322;2023-06-14T08:09:51;8.43;;;4.57;;
71570;SDS011;59407;42.682;23.322;2023-06-14T08:12:16;7.93;;;3.83;;
71570;SDS011;59407;42.682;23.322;2023-06-14T08:14:42;7.82;;;3.75;;
71570;SDS011;59407;42.682;23.322;2023-06-14T08:17:08;6.60;;;3.40;;
71570;SDS011;59407;42.682;23.322;2023-06-14T08:22:31;7.90;;;3.50;;
71570;SDS011;59407;42.682;23.322;2023-06-14T08:24:59;8.70;;;4.80;;
71570;SDS011;59407;42.682;23.322;2023-06-14T08:27:26;8.82;;;4.75;;
71570;SDS011;59407;42.682;23.322;2023-06-14T08:29:51;7.93;;;4.33;;
71570;SDS011;59407;42.682;23.322;2023-06-14T08:32:18;10.25;;;5.10;;
71570;SDS011;59407;42.682;23.322;2023-06-14T08:34:43;7.83;;;4.47;;
71570;SDS011;59407;42.682;23.322;2023-06-14T08:37:09;8.38;;;4.38;;
71570;SDS011;59407;42.682;23.322;2023-06-14T08:39:34;9.10;;;4.87;;
71570;SDS011;59407;42.682;23.322;2023-06-14T08:42:01;9.38;;;4.10;;
71570;SDS011;59407;42.682;23.322;2023-06-14T08:44:27;9.53;;;4.43;;
71570;SDS011;59407;42.682;23.322;2023-06-14T08:46:54;8.38;;;4.30;;
71570;SDS011;59407;42.682;23.322;2023-06-14T08:49:22;9.32;;;4.63;;
71570;SDS011;59407;42.682;23.322;2023-06-14T08:51:49;8.40;;;4.60;;
71570;SDS011;59407;42.682;23.322;2023-06-14T08:54:16;9.02;;;4.15;;
71570;SDS011;59407;42.682;23.322;2023-06-14T08:56:45;7.03;;;4.23;;
71570;SDS011;59407;42.682;23.322;2023-06-14T08:59:13;6.65;;;4.05;;
71570;SDS011;59407;42.682;23.322;2023-06-14T09:01:38;8.60;;;4.38;;
71570;SDS011;59407;42.682;23.322;2023-06-14T09:04:05;8.00;;;4.00;;
71570;SDS011;59407;42.682;23.322;2023-06-14T09:06:31;7.00;;;3.95;;
71570;SDS011;59407;42.682;23.322;2023-06-14T09:08:56;8.17;;;3.83;;
71570;SDS011;59407;42.682;23.322;2023-06-14T09:11:22;8.77;;;4.18;;
71570;SDS011;59407;42.682;23.322;2023-06-14T09:13:49;9.38;;;4.28;;
71570;SDS011;59407;42.682;23.322;2023-06-14T09:16:15;9.43;;;4.15;;
71570;SDS011;59407;42.682;23.322;2023-06-14T09:18:47;9.20;;;4.60;;
71570;SDS011;59407;42.682;23.322;2023-06-14T09:21:13;6.43;;;3.65;;
71570;SDS011;59407;42.682;23.322;2023-06-14T09:23:40;6.38;;;3.47;;
71570;SDS011;59407;42.682;23.322;2023-06-14T09:29:04;9.20;;;4.32;;
71570;SDS011;59407;42.682;23.322;2023-06-14T09:31:30;7.37;;;3.70;;
71570;SDS011;59407;42.682;23.322;2023-06-14T09:33:56;8.60;;;4.32;;
71570;SDS011;59407;42.682;23.322;2023-06-14T09:36:23;8.70;;;4.47;;
71570;SDS011;59407;42.682;23.322;2023-06-14T09:38:59;11.40;;;4.97;;
71570;SDS011;59407;42.682;23.322;2023-06-14T09:41:39;9.15;;;4.15;;
71570;SDS011;59407;42.682;23.322;2023-06-14T09:44:08;8.32;;;3.83;;
71570;SDS011;59407;42.682;23.322;2023-06-14T09:46:35;8.52;;;4.55;;
71570;SDS011;59407;42.682;23.322;2023-06-14T09:49:02;7.93;;;4.07;;
71570;SDS011;59407;42.682;23.322;2023-06-14T09:51:28;7.30;;;3.72;;
71570;SDS011;59407;42.682;23.322;2023-06-14T09:53:58;6.82;;;3.88;;
71570;SDS011;59407;42.682;23.322;2023-06-14T09:56:30;6.78;;;3.95;;
71570;SDS011;59407;42.682;23.322;2023-06-14T09:58:57;8.23;;;4.03;;
71570;SDS011;59407;42.682;23.322;2023-06-14T10:01:27;10.10;;;4.90;;
71570;SDS011;59407;42.682;23.322;2023-06-14T10:04:01;9.13;;;4.70;;
71570;SDS011;59407;42.682;23.322;2023-06-14T10:06:28;7.68;;;3.83;;
71570;SDS011;59407;42.682;23.322;2023-06-14T10:08:56;9.02;;;4.15;;
71570;SDS011;59407;42.682;23.322;2023-06-14T10:11:24;7.63;;;3.95;;
71570;SDS011;59407;42.682;23.322;2023-06-14T10:13:50;8.03;;;4.33;;
71570;SDS011;59407;42.682;23.322;2023-06-14T10:16:30;8.63;;;3.60;;
71570;SDS011;59407;42.682;23.322;2023-06-14T10:19:07;7.22;;;3.67;;
71570;SDS011;59407;42.682;23.322;2023-06-14T10:21:55;7.07;;;3.50;;
71570;SDS011;59407;42.682;23.322;2023-06-14T10:24:28;9.05;;;4.20;;
71570;SDS011;59407;42.682;23.322;2023-06-14T10:26:56;6.47;;;3.40;;
71570;SDS011;59407;42.682;23.322;2023-06-14T10:29:22;7.22;;;3.88;;
71570;SDS011;59407;42.682;23.322;2023-06-14T10:31:56;9.10;;;3.77;;
71570;SDS011;59407;42.682;23.322;2023-06-14T10:39:38;9.53;;;4.00;;
71570;SDS011;59407;42.682;23.322;2023-06-14T10:42:06;7.93;;;4.20;;
71570;SDS011;59407;42.682;23.322;2023-06-14T10:47:00;7.37;;;4.00;;
71570;SDS011;59407;42.682;23.322;2023-06-14T10:49:39;7.00;;;4.05;;
71570;SDS011;59407;42.682;23.322;2023-06-14T10:52:13;6.97;;;3.78;;
71570;SDS011;59407;42.682;23.322;2023-06-14T10:57:34;6.40;;;3.25;;
71570;SDS011;59407;42.682;23.322;2023-06-14T11:00:06;5.77;;;3.33;;
71570;SDS011;59407;42.682;23.322;2023-06-14T11:11:05;7.05;;;3.97;;
71570;SDS011;59407;42.682;23.322;2023-06-14T11:13:31;6.53;;;3.50;;
71570;SDS011;59407;42.682;23.322;2023-06-14T11:15:57;6.47;;;3.25;;
71570;SDS011;59407;42.682;23.322;2023-06-14T11:18:23;6.73;;;3.57;;
71570;SDS011;59407;42.682;23.322;2023-06-14T11:20:55;6.60;;;3.50;;
71570;SDS011;59407;42.682;23.322;2023-06-14T11:23:21;8.77;;;4.10;;
71570;SDS011;59407;42.682;23.322;2023-06-14T11:25:50;6.28;;;3.45;;
71570;SDS011;59407;42.682;23.322;2023-06-14T11:28:16;5.93;;;3.15;;
71570;SDS011;59407;42.682;23.322;2023-06-14T11:30:42;5.97;;;3.30;;
71570;SDS011;59407;42.682;23.322;2023-06-14T11:33:09;7.27;;;3.90;;
71570;SDS011;59407;42.682;23.322;2023-06-14T11:35:35;6.28;;;3.35;;
71570;SDS011;59407;42.682;23.322;2023-06-14T11:38:01;8.27;;;3.70;;
71570;SDS011;59407;42.682;23.322;2023-06-14T11:40:27;7.65;;;3.55;;
71570;SDS011;59407;42.682;23.322;2023-06-14T11:42:59;6.77;;;3.00;;
71570;SDS011;59407;42.682;23.322;2023-06-14T11:45:25;6.47;;;3.35;;
71570;SDS011;59407;42.682;23.322;2023-06-14T11:47:51;5.65;;;3.17;;
71570;SDS011;59407;42.682;23.322;2023-06-14T11:50:19;6.90;;;3.37;;
71570;SDS011;59407;42.682;23.322;2023-06-14T11:52:44;6.15;;;3.33;;
71570;SDS011;59407;42.682;23.322;2023-06-14T11:55:19;6.40;;;3.42;;
71570;SDS011;59407;42.682;23.322;2023-06-14T11:57:46;7.33;;;3.37;;
71570;SDS011;59407;42.682;23.322;2023-06-14T12:00:11;6.85;;;3.42;;
71570;SDS011;59407;42.682;23.322;2023-06-14T12:02:37;6.45;;;3.38;;
71570;SDS011;59407;42.682;23.322;2023-06-14T12:05:04;6.15;;;3.05;;
71570;SDS011;59407;42.682;23.322;2023-06-14T12:07:32;5.65;;;2.95;;
71570;SDS011;59407;42.682;23.322;2023-06-14T12:12:24;7.20;;;3.40;;
71570;SDS011;59407;42.682;23.322;2023-06-14T12:14:50;6.65;;;3.30;;
71570;SDS011;59407;42.682;23.322;2023-06-14T12:17:16;8.87;;;3.43;;
71570;SDS011;59407;42.682;23.322;2023-06-14T12:19:43;5.55;;;3.10;;
71570;SDS011;59407;42.682;23.322;2023-06-14T12:22:09;6.25;;;3.30;;
71570;SDS011;59407;42.682;23.322;2023-06-14T12:24:35;5.55;;;2.65;;
71570;SDS011;59407;42.682;23.322;2023-06-14T12:27:01;4.90;;;2.53;;
71570;SDS011;59407;42.682;23.322;2023-06-14T12:29:30;4.93;;;2.85;;
71570;SDS011;59407;42.682;23.322;2023-06-14T12:31:56;4.95;;;2.63;;
71570;SDS011;59407;42.682;23.322;2023-06-14T12:34:25;5.47;;;2.63;;
71570;SDS011;59407;42.682;23.322;2023-06-14T12:36:52;5.13;;;2.60;;
71570;SDS011;59407;42.682;23.322;2023-06-14T12:39:20;4.88;;;2.85;;
71570;SDS011;59407;42.682;23.322;2023-06-14T12:41:46;6.70;;;3.05;;
71570;SDS011;59407;42.682;23.322;2023-06-14T12:44:12;4.87;;;2.40;;
71570;SDS011;59407;42.682;23.322;2023-06-14T12:46:39;5.32;;;2.67;;
71570;SDS011;59407;42.682;23.322;2023-06-14T12:49:05;4.72;;;2.53;;
71570;SDS011;59407;42.682;23.322;2023-06-14T12:51:32;5.88;;;2.63;;
71570;SDS011;59407;42.682;23.322;2023-06-14T12:53:57;5.50;;;2.53;;
71570;SDS011;59407;42.682;23.322;2023-06-14T12:56:22;4.43;;;2.67;;
71570;SDS011;59407;42.682;23.322;2023-06-14T12:58:48;5.00;;;2.70;;
71570;SDS011;59407;42.682;23.322;2023-06-14T13:01:13;5.10;;;3.23;;
71570;SDS011;59407;42.682;23.322;2023-06-14T13:03:39;5.67;;;3.00;;
71570;SDS011;59407;42.682;23.322;2023-06-14T13:06:04;5.13;;;2.50;;
71570;SDS011;59407;42.682;23.322;2023-06-14T13:08:30;7.27;;;2.50;;
71570;SDS011;59407;42.682;23.322;2023-06-14T13:10:56;4.90;;;2.67;;
71570;SDS011;59407;42.682;23.322;2023-06-14T13:13:21;4.83;;;2.63;;
71570;SDS011;59407;42.682;23.322;2023-06-14T13:15:47;5.70;;;2.70;;
71570;SDS011;59407;42.682;23.322;2023-06-14T13:18:14;6.23;;;2.33;;
71570;SDS011;59407;42.682;23.322;2023-06-14T13:20:40;5.30;;;2.75;;
71570;SDS011;59407;42.682;23.322;2023-06-14T13:23:06;5.60;;;2.65;;
71570;SDS011;59407;42.682;23.322;2023-06-14T13:25:38;4.63;;;2.50;;
71570;SDS011;59407;42.682;23.322;2023-06-14T13:28:05;5.75;;;2.53;;
71570;SDS011;59407;42.682;23.322;2023-06-14T13:30:31;4.22;;;2.40;;
71570;SDS011;59407;42.682;23.322;2023-06-14T13:32:57;4.77;;;2.33;;
71570;SDS011;59407;42.682;23.322;2023-06-14T13:35:23;5.28;;;2.65;;
71570;SDS011;59407;42.682;23.322;2023-06-14T13:37:49;4.55;;;2.40;;
71570;SDS011;59407;42.682;23.322;2023-06-14T13:40:15;7.83;;;2.60;;
71570;SDS011;59407;42.682;23.322;2023-06-14T13:42:40;7.00;;;2.70;;
71570;SDS011;59407;42.682;23.322;2023-06-14T13:45:06;6.40;;;2.35;;
71570;SDS011;59407;42.682;23.322;2023-06-14T13:47:32;5.30;;;2.77;;
71570;SDS011;59407;42.682;23.322;2023-06-14T13:49:58;5.47;;;2.28;;
71570;SDS011;59407;42.682;23.322;2023-06-14T13:52:24;7.30;;;3.40;;
71570;SDS011;59407;42.682;23.322;2023-06-14T13:54:49;6.22;;;2.80;;
71570;SDS011;59407;42.682;23.322;2023-06-14T13:57:15;5.27;;;2.60;;
71570;SDS011;59407;42.682;23.322;2023-06-14T13:59:41;7.93;;;2.78;;
71570;SDS011;59407;42.682;23.322;2023-06-14T14:02:07;9.23;;;3.93;;
71570;SDS011;59407;42.682;23.322;2023-06-14T14:04:33;7.43;;;3.42;;
71570;SDS011;59407;42.682;23.322;2023-06-14T14:06:59;6.10;;;2.97;;
71570;SDS011;59407;42.682;23.322;2023-06-14T14:09:24;7.07;;;3.13;;
71570;SDS011;59407;42.682;23.322;2023-06-14T14:11:50;5.60;;;3.00;;
71570;SDS011;59407;42.682;23.322;2023-06-14T14:14:15;6.20;;;3.10;;
71570;SDS011;59407;42.682;23.322;2023-06-14T14:16:41;6.27;;;3.00;;
71570;SDS011;59407;42.682;23.322;2023-06-14T14:19:06;5.85;;;3.28;;
71570;SDS011;59407;42.682;23.322;2023-06-14T14:21:32;6.40;;;3.10;;
71570;SDS011;59407;42.682;23.322;2023-06-14T14:23:57;7.17;;;3.60;;
71570;SDS011;59407;42.682;23.322;2023-06-14T14:26:23;7.53;;;3.70;;
71570;SDS011;59407;42.682;23.322;2023-06-14T14:28:49;5.75;;;2.85;;
71570;SDS011;59407;42.682;23.322;2023-06-14T14:31:15;8.07;;;3.57;;
71570;SDS011;59407;42.682;23.322;2023-06-14T14:33:40;4.65;;;2.67;;
71570;SDS011;59407;42.682;23.322;2023-06-14T14:36:06;5.13;;;2.40;;
71570;SDS011;59407;42.682;23.322;2023-06-14T14:38:32;5.82;;;2.60;;
71570;SDS011;59407;42.682;23.322;2023-06-14T14:40:58;5.13;;;2.50;;
71570;SDS011;59407;42.682;23.322;2023-06-14T14:43:23;6.57;;;3.10;;
71570;SDS011;59407;42.682;23.322;2023-06-14T14:45:48;5.70;;;3.07;;
71570;SDS011;59407;42.682;23.322;2023-06-14T14:48:14;5.43;;;3.10;;
71570;SDS011;59407;42.682;23.322;2023-06-14T14:50:39;7.83;;;3.30;;
71570;SDS011;59407;42.682;23.322;2023-06-14T14:53:05;6.87;;;3.17;;
71570;SDS011;59407;42.682;23.322;2023-06-14T14:55:31;4.60;;;2.42;;
71570;SDS011;59407;42.682;23.322;2023-06-14T14:57:59;5.75;;;2.58;;
71570;SDS011;59407;42.682;23.322;2023-06-14T15:00:25;4.40;;;2.37;;
71570;SDS011;59407;42.682;23.322;2023-06-14T15:02:50;6.33;;;2.53;;
71570;SDS011;59407;42.682;23.322;2023-06-14T15:05:16;6.07;;;3.00;;
71570;SDS011;59407;42.682;23.322;2023-06-14T15:07:41;6.50;;;2.93;;
71570;SDS011;59407;42.682;23.322;2023-06-14T15:10:07;5.77;;;2.63;;
71570;SDS011;59407;42.682;23.322;2023-06-14T15:12:33;7.50;;;3.08;;
71570;SDS011;59407;42.682;23.322;2023-06-14T15:14:59;6.95;;;3.90;;
71570;SDS011;59407;42.682;23.322;2023-06-14T15:17:25;9.57;;;3.77;;
71570;SDS011;59407;42.682;23.322;2023-06-14T15:19:50;6.87;;;3.60;;
71570;SDS011;59407;42.682;23.322;2023-06-14T15:22:16;6.73;;;3.20;;
71570;SDS011;59407;42.682;23.322;2023-06-14T15:24:41;7.20;;;3.63;;
71570;SDS011;59407;42.682;23.322;2023-06-14T15:27:07;8.10;;;3.37;;
71570;SDS011;59407;42.682;23.322;2023-06-14T15:29:33;8.35;;;3.97;;
71570;SDS011;59407;42.682;23.322;2023-06-14T15:31:58;7.87;;;4.07;;
71570;SDS011;59407;42.682;23.322;2023-06-14T15:34:24;7.35;;;3.95;;
71570;SDS011;59407;42.682;23.322;2023-06-14T15:36:49;7.63;;;3.63;;
71570;SDS011;59407;42.682;23.322;2023-06-14T15:42:33;8.77;;;4.82;;
71570;SDS011;59407;42.682;23.322;2023-06-14T15:44:58;17.70;;;9.30;;
71570;SDS011;59407;42.682;23.322;2023-06-14T15:47:24;14.67;;;7.00;;
71570;SDS011;59407;42.682;23.322;2023-06-14T15:49:49;12.93;;;7.25;;
71570;SDS011;59407;42.682;23.322;2023-06-14T15:52:15;11.43;;;5.68;;
71570;SDS011;59407;42.682;23.322;2023-06-14T15:54:41;9.50;;;4.97;;
71570;SDS011;59407;42.682;23.322;2023-06-14T15:57:06;8.40;;;4.03;;
71570;SDS011;59407;42.682;23.322;2023-06-14T15:59:32;11.07;;;5.82;;
71570;SDS011;59407;42.682;23.322;2023-06-14T16:01:57;9.03;;;4.30;;
71570;SDS011;59407;42.682;23.322;2023-06-14T16:04:23;9.90;;;4.90;;
71570;SDS011;59407;42.682;23.322;2023-06-14T16:06:49;10.10;;;4.30;;
71570;SDS011;59407;42.682;23.322;2023-06-14T16:09:14;8.80;;;4.23;;
71570;SDS011;59407;42.682;23.322;2023-06-14T16:11:41;10.07;;;4.72;;
71570;SDS011;59407;42.682;23.322;2023-06-14T16:14:08;8.70;;;4.07;;
71570;SDS011;59407;42.682;23.322;2023-06-14T16:16:34;7.07;;;3.30;;
71570;SDS011;59407;42.682;23.322;2023-06-14T16:18:59;7.53;;;3.10;;
71570;SDS011;59407;42.682;23.322;2023-06-14T16:21:24;6.50;;;3.40;;
71570;SDS011;59407;42.682;23.322;2023-06-14T16:23:51;6.80;;;3.23;;
71570;SDS011;59407;42.682;23.322;2023-06-14T16:26:16;4.60;;;3.00;;
71570;SDS011;59407;42.682;23.322;2023-06-14T16:28:42;5.53;;;3.27;;
71570;SDS011;59407;42.682;23.322;2023-06-14T16:31:09;5.55;;;2.83;;
71570;SDS011;59407;42.682;23.322;2023-06-14T16:33:37;6.75;;;2.95;;
71570;SDS011;59407;42.682;23.322;2023-06-14T16:36:03;5.40;;;2.80;;
71570;SDS011;59407;42.682;23.322;2023-06-14T16:38:30;6.63;;;2.47;;
71570;SDS011;59407;42.682;23.322;2023-06-14T16:40:55;5.95;;;2.90;;
71570;SDS011;59407;42.682;23.322;2023-06-14T16:43:21;6.80;;;3.37;;
71570;SDS011;59407;42.682;23.322;2023-06-14T16:45:46;6.07;;;3.07;;
71570;SDS011;59407;42.682;23.322;2023-06-14T16:48:11;7.83;;;4.00;;
71570;SDS011;59407;42.682;23.322;2023-06-14T16:50:37;5.50;;;2.90;;
71570;SDS011;59407;42.682;23.322;2023-06-14T16:53:02;6.53;;;3.20;;
71570;SDS011;59407;42.682;23.322;2023-06-14T16:55:28;8.60;;;3.43;;
71570;SDS011;59407;42.682;23.322;2023-06-14T16:57:53;6.10;;;3.37;;
71570;SDS011;59407;42.682;23.322;2023-06-14T17:00:19;8.87;;;4.17;;
71570;SDS011;59407;42.682;23.322;2023-06-14T17:02:44;7.68;;;3.85;;
71570;SDS011;59407;42.682;23.322;2023-06-14T17:05:11;7.00;;;3.75;;